sensor_id;sensor_type;location;lat;lon;timestamp;temperature;humidity
23475;DHT22;11910;52.086;21.066;2023-02-28T00:01:23;-1.50;92.40
23475;DHT22;11910;52.086;21.066;2023-02-28T00:03:49;-1.60;92.80
23475;DHT22;11910;52.086;21.066;2023-02-28T00:06:15;-1.60;93.50
23475;DHT22;11910;52.086;21.066;2023-02-28T00:08:40;-1.70;93.50
23475;DHT22;11910;52.086;21.066;2023-02-28T00:11:09;-1.70;93.60
23475;DHT22;11910;52.086;21.066;2023-02-28T00:13:36;-1.70;93.80
23475;DHT22;11910;52.086;21.066;2023-02-28T00:16:05;-1.70;93.70
23475;DHT22;11910;52.086;21.066;2023-02-28T00:18:32;-1.80;93.20
23475;DHT22;11910;52.086;21.066;2023-02-28T00:20:58;-1.90;93.30
23475;DHT22;11910;52.086;21.066;2023-02-28T00:23:25;-1.90;93.30
23475;DHT22;11910;52.086;21.066;2023-02-28T00:25:51;-1.90;93.40
23475;DHT22;11910;52.086;21.066;2023-02-28T00:28:17;-2.00;93.40
23475;DHT22;11910;52.086;21.066;2023-02-28T00:30:43;-2.00;93.50
23475;DHT22;11910;52.086;21.066;2023-02-28T00:33:08;-2.10;93.40
23475;DHT22;11910;52.086;21.066;2023-02-28T00:35:34;-2.10;93.70
23475;DHT22;11910;52.086;21.066;2023-02-28T00:37:59;-2.20;93.50
23475;DHT22;11910;52.086;21.066;2023-02-28T00:40:25;-2.20;93.50
23475;DHT22;11910;52.086;21.066;2023-02-28T00:42:51;-2.30;93.80
23475;DHT22;11910;52.086;21.066;2023-02-28T00:45:16;-2.30;94.30
23475;DHT22;11910;52.086;21.066;2023-02-28T00:47:42;-2.30;93.70
23475;DHT22;11910;52.086;21.066;2023-02-28T00:50:08;-2.40;94.10
23475;DHT22;11910;52.086;21.066;2023-02-28T00:52:34;-2.30;94.50
23475;DHT22;11910;52.086;21.066;2023-02-28T00:55:00;-2.40;94.40
23475;DHT22;11910;52.086;21.066;2023-02-28T00:57:25;-2.40;93.90
23475;DHT22;11910;52.086;21.066;2023-02-28T00:59:51;-2.50;94.10
23475;DHT22;11910;52.086;21.066;2023-02-28T01:02:20;-2.50;94.50
23475;DHT22;11910;52.086;21.066;2023-02-28T01:04:46;-2.50;94.20
23475;DHT22;11910;52.086;21.066;2023-02-28T01:07:12;-2.50;94.30
23475;DHT22;11910;52.086;21.066;2023-02-28T01:09:37;-2.50;94.80
23475;DHT22;11910;52.086;21.066;2023-02-28T01:12:03;-2.50;95.00
23475;DHT22;11910;52.086;21.066;2023-02-28T01:14:28;-2.40;95.30
23475;DHT22;11910;52.086;21.066;2023-02-28T01:16:54;-2.50;95.00
23475;DHT22;11910;52.086;21.066;2023-02-28T01:19:20;-2.50;95.30
23475;DHT22;11910;52.086;21.066;2023-02-28T01:21:45;-2.50;94.80
23475;DHT22;11910;52.086;21.066;2023-02-28T01:24:11;-2.50;94.70
23475;DHT22;11910;52.086;21.066;2023-02-28T01:26:36;-2.60;94.60
23475;DHT22;11910;52.086;21.066;2023-02-28T01:29:03;-2.60;94.70
23475;DHT22;11910;52.086;21.066;2023-02-28T01:31:28;-2.60;95.00
23475;DHT22;11910;52.086;21.066;2023-02-28T01:33:54;-2.60;95.30
23475;DHT22;11910;52.086;21.066;2023-02-28T01:36:22;-2.60;95.70
23475;DHT22;11910;52.086;21.066;2023-02-28T01:38:49;-2.60;95.50
23475;DHT22;11910;52.086;21.066;2023-02-28T01:41:18;-2.70;94.70
23475;DHT22;11910;52.086;21.066;2023-02-28T01:46:10;-2.70;94.60
23475;DHT22;11910;52.086;21.066;2023-02-28T01:48:48;-2.70;94.80
23475;DHT22;11910;52.086;21.066;2023-02-28T01:51:26;-2.80;95.20
23475;DHT22;11910;52.086;21.066;2023-02-28T01:53:59;-2.80;95.50
23475;DHT22;11910;52.086;21.066;2023-02-28T01:56:29;-2.80;95.50
23475;DHT22;11910;52.086;21.066;2023-02-28T01:58:56;-2.90;94.80
23475;DHT22;11910;52.086;21.066;2023-02-28T02:01:23;-2.90;95.40
23475;DHT22;11910;52.086;21.066;2023-02-28T02:03:55;-3.00;95.60
23475;DHT22;11910;52.086;21.066;2023-02-28T02:06:27;-2.90;95.70
23475;DHT22;11910;52.086;21.066;2023-02-28T02:08:53;-2.90;95.60
23475;DHT22;11910;52.086;21.066;2023-02-28T02:11:22;-3.00;95.00
23475;DHT22;11910;52.086;21.066;2023-02-28T02:22:36;-3.10;95.60
23475;DHT22;11910;52.086;21.066;2023-02-28T02:25:14;-3.10;95.60
23475;DHT22;11910;52.086;21.066;2023-02-28T02:43:49;-3.20;95.50
23475;DHT22;11910;52.086;21.066;2023-02-28T02:46:35;-3.20;95.50
23475;DHT22;11910;52.086;21.066;2023-02-28T02:49:06;-3.20;95.70
23475;DHT22;11910;52.086;21.066;2023-02-28T02:54:23;-3.20;95.40
23475;DHT22;11910;52.086;21.066;2023-02-28T02:56:50;-3.30;95.20
23475;DHT22;11910;52.086;21.066;2023-02-28T02:59:20;-3.30;95.20
23475;DHT22;11910;52.086;21.066;2023-02-28T03:01:52;-3.30;95.60
23475;DHT22;11910;52.086;21.066;2023-02-28T03:04:23;-3.30;95.70
23475;DHT22;11910;52.086;21.066;2023-02-28T03:06:51;-3.30;95.70
23475;DHT22;11910;52.086;21.066;2023-02-28T03:09:23;-3.40;95.90
23475;DHT22;11910;52.086;21.066;2023-02-28T03:11:49;-3.40;95.70
23475;DHT22;11910;52.086;21.066;2023-02-28T03:14:56;-3.40;95.80
23475;DHT22;11910;52.086;21.066;2023-02-28T03:17:31;-3.40;95.80
23475;DHT22;11910;52.086;21.066;2023-02-28T03:22:55;-3.40;95.80
23475;DHT22;11910;52.086;21.066;2023-02-28T03:33:26;-3.60;95.20
23475;DHT22;11910;52.086;21.066;2023-02-28T03:35:56;-3.60;95.60
23475;DHT22;11910;52.086;21.066;2023-02-28T03:38:35;-3.60;95.80
23475;DHT22;11910;52.086;21.066;2023-02-28T03:41:09;-3.60;96.10
23475;DHT22;11910;52.086;21.066;2023-02-28T03:43:41;-3.60;96.10
23475;DHT22;11910;52.086;21.066;2023-02-28T03:46:10;-3.60;96.10
23475;DHT22;11910;52.086;21.066;2023-02-28T03:48:41;-3.60;96.10
23475;DHT22;11910;52.086;21.066;2023-02-28T03:51:12;-3.60;96.10
23475;DHT22;11910;52.086;21.066;2023-02-28T03:53:44;-3.60;96.30
23475;DHT22;11910;52.086;21.066;2023-02-28T03:56:18;-3.60;96.30
23475;DHT22;11910;52.086;21.066;2023-02-28T03:59:09;-3.50;96.10
23475;DHT22;11910;52.086;21.066;2023-02-28T04:01:43;-3.50;95.70
23475;DHT22;11910;52.086;21.066;2023-02-28T04:04:10;-3.60;95.30
23475;DHT22;11910;52.086;21.066;2023-02-28T04:06:36;-3.60;95.30
23475;DHT22;11910;52.086;21.066;2023-02-28T04:09:03;-3.60;95.50
23475;DHT22;11910;52.086;21.066;2023-02-28T04:11:42;-3.60;95.90
23475;DHT22;11910;52.086;21.066;2023-02-28T04:14:09;-3.70;95.70
23475;DHT22;11910;52.086;21.066;2023-02-28T04:16:37;-3.60;96.30
23475;DHT22;11910;52.086;21.066;2023-02-28T04:19:04;-3.60;96.10
23475;DHT22;11910;52.086;21.066;2023-02-28T04:21:33;-3.60;96.00
23475;DHT22;11910;52.086;21.066;2023-02-28T04:23:58;-3.60;96.10
23475;DHT22;11910;52.086;21.066;2023-02-28T04:26:28;-3.60;96.20
23475;DHT22;11910;52.086;21.066;2023-02-28T04:28:55;-3.60;96.20
23475;DHT22;11910;52.086;21.066;2023-02-28T04:31:21;-3.60;96.20
23475;DHT22;11910;52.086;21.066;2023-02-28T04:33:46;-3.60;96.30
23475;DHT22;11910;52.086;21.066;2023-02-28T04:36:12;-3.60;96.30
23475;DHT22;11910;52.086;21.066;2023-02-28T04:38:40;-3.60;96.20
23475;DHT22;11910;52.086;21.066;2023-02-28T04:41:06;-3.60;96.10
23475;DHT22;11910;52.086;21.066;2023-02-28T04:43:32;-3.50;96.20
23475;DHT22;11910;52.086;21.066;2023-02-28T04:46:01;-3.50;95.50
23475;DHT22;11910;52.086;21.066;2023-02-28T04:48:29;-3.50;95.50
23475;DHT22;11910;52.086;21.066;2023-02-28T04:50:54;-3.60;95.50
23475;DHT22;11910;52.086;21.066;2023-02-28T04:53:21;-3.60;95.80
23475;DHT22;11910;52.086;21.066;2023-02-28T04:55:46;-3.60;95.80
23475;DHT22;11910;52.086;21.066;2023-02-28T04:58:13;-3.60;95.80
23475;DHT22;11910;52.086;21.066;2023-02-28T05:00:39;-3.60;95.90
23475;DHT22;11910;52.086;21.066;2023-02-28T05:03:05;-3.70;95.80
23475;DHT22;11910;52.086;21.066;2023-02-28T05:05:31;-3.70;95.80
23475;DHT22;11910;52.086;21.066;2023-02-28T05:07:57;-3.70;96.10
23475;DHT22;11910;52.086;21.066;2023-02-28T05:10:23;-3.70;96.10
23475;DHT22;11910;52.086;21.066;2023-02-28T05:12:48;-3.70;96.00
23475;DHT22;11910;52.086;21.066;2023-02-28T05:15:15;-3.70;96.10
23475;DHT22;11910;52.086;21.066;2023-02-28T05:17:41;-3.80;96.20
23475;DHT22;11910;52.086;21.066;2023-02-28T05:20:08;-3.80;96.00
23475;DHT22;11910;52.086;21.066;2023-02-28T05:22:36;-3.80;96.40
23475;DHT22;11910;52.086;21.066;2023-02-28T05:25:03;-3.80;96.30
23475;DHT22;11910;52.086;21.066;2023-02-28T05:27:30;-3.80;95.20
23475;DHT22;11910;52.086;21.066;2023-02-28T05:29:55;-3.80;95.60
23475;DHT22;11910;52.086;21.066;2023-02-28T05:32:21;-3.80;95.50
23475;DHT22;11910;52.086;21.066;2023-02-28T05:34:47;-3.80;95.80
23475;DHT22;11910;52.086;21.066;2023-02-28T05:37:14;-3.80;95.50
23475;DHT22;11910;52.086;21.066;2023-02-28T05:39:40;-3.80;95.90
23475;DHT22;11910;52.086;21.066;2023-02-28T05:42:05;-3.70;96.00
23475;DHT22;11910;52.086;21.066;2023-02-28T05:44:32;-3.80;96.20
23475;DHT22;11910;52.086;21.066;2023-02-28T05:46:57;-3.70;95.80
23475;DHT22;11910;52.086;21.066;2023-02-28T05:49:23;-3.70;96.10
23475;DHT22;11910;52.086;21.066;2023-02-28T05:51:48;-3.70;96.20
23475;DHT22;11910;52.086;21.066;2023-02-28T05:54:14;-3.70;96.30
23475;DHT22;11910;52.086;21.066;2023-02-28T05:56:40;-3.70;96.30
23475;DHT22;11910;52.086;21.066;2023-02-28T05:59:09;-3.70;96.30
23475;DHT22;11910;52.086;21.066;2023-02-28T06:01:45;-3.70;96.30
23475;DHT22;11910;52.086;21.066;2023-02-28T06:04:14;-3.60;96.40
23475;DHT22;11910;52.086;21.066;2023-02-28T06:06:43;-3.60;96.60
23475;DHT22;11910;52.086;21.066;2023-02-28T06:09:10;-3.60;96.80
23475;DHT22;11910;52.086;21.066;2023-02-28T06:11:35;-3.60;97.00
23475;DHT22;11910;52.086;21.066;2023-02-28T06:14:02;-3.50;97.40
23475;DHT22;11910;52.086;21.066;2023-02-28T06:16:29;-3.50;97.20
23475;DHT22;11910;52.086;21.066;2023-02-28T06:18:57;-3.40;97.10
23475;DHT22;11910;52.086;21.066;2023-02-28T06:21:23;-3.30;97.00
23475;DHT22;11910;52.086;21.066;2023-02-28T06:23:48;-3.30;97.10
23475;DHT22;11910;52.086;21.066;2023-02-28T06:26:14;-3.20;97.10
23475;DHT22;11910;52.086;21.066;2023-02-28T06:28:40;-3.10;97.40
23475;DHT22;11910;52.086;21.066;2023-02-28T06:31:08;-3.00;97.70
23475;DHT22;11910;52.086;21.066;2023-02-28T06:33:34;-3.00;97.40
23475;DHT22;11910;52.086;21.066;2023-02-28T06:36:00;-2.90;97.60
23475;DHT22;11910;52.086;21.066;2023-02-28T06:38:26;-2.80;97.80
23475;DHT22;11910;52.086;21.066;2023-02-28T06:40:56;-2.80;97.90
23475;DHT22;11910;52.086;21.066;2023-02-28T06:43:23;-2.70;97.90
23475;DHT22;11910;52.086;21.066;2023-02-28T06:45:49;-2.60;98.10
23475;DHT22;11910;52.086;21.066;2023-02-28T06:48:22;-2.50;98.20
23475;DHT22;11910;52.086;21.066;2023-02-28T06:50:48;-2.40;98.50
23475;DHT22;11910;52.086;21.066;2023-02-28T06:53:14;-2.30;99.00
23475;DHT22;11910;52.086;21.066;2023-02-28T06:55:40;-2.20;98.80
23475;DHT22;11910;52.086;21.066;2023-02-28T06:58:06;-2.20;98.80
23475;DHT22;11910;52.086;21.066;2023-02-28T07:00:42;-2.00;98.80
23475;DHT22;11910;52.086;21.066;2023-02-28T07:03:10;-1.90;99.00
23475;DHT22;11910;52.086;21.066;2023-02-28T07:05:43;-1.70;99.10
23475;DHT22;11910;52.086;21.066;2023-02-28T07:08:09;-1.60;98.60
23475;DHT22;11910;52.086;21.066;2023-02-28T07:10:37;-1.50;98.60
23475;DHT22;11910;52.086;21.066;2023-02-28T07:13:07;-1.50;98.30
23475;DHT22;11910;52.086;21.066;2023-02-28T07:15:32;-1.40;98.90
23475;DHT22;11910;52.086;21.066;2023-02-28T07:17:58;-1.30;99.00
23475;DHT22;11910;52.086;21.066;2023-02-28T07:20:26;-1.10;98.20
23475;DHT22;11910;52.086;21.066;2023-02-28T07:22:52;-1.00;97.70
23475;DHT22;11910;52.086;21.066;2023-02-28T07:25:30;-0.80;97.40
23475;DHT22;11910;52.086;21.066;2023-02-28T07:28:05;-0.70;97.70
23475;DHT22;11910;52.086;21.066;2023-02-28T07:30:39;-0.60;96.50
23475;DHT22;11910;52.086;21.066;2023-02-28T07:33:11;-0.40;96.70
23475;DHT22;11910;52.086;21.066;2023-02-28T07:35:44;-0.30;96.70
23475;DHT22;11910;52.086;21.066;2023-02-28T07:38:10;-0.10;96.00
23475;DHT22;11910;52.086;21.066;2023-02-28T07:40:39;0.00;96.00
23475;DHT22;11910;52.086;21.066;2023-02-28T07:43:05;0.10;95.70
23475;DHT22;11910;52.086;21.066;2023-02-28T07:45:36;0.20;95.10
23475;DHT22;11910;52.086;21.066;2023-02-28T07:48:02;0.30;95.00
23475;DHT22;11910;52.086;21.066;2023-02-28T07:50:30;0.50;93.60
23475;DHT22;11910;52.086;21.066;2023-02-28T07:52:58;0.60;93.80
23475;DHT22;11910;52.086;21.066;2023-02-28T07:55:27;0.80;93.80
23475;DHT22;11910;52.086;21.066;2023-02-28T07:57:52;0.90;92.20
23475;DHT22;11910;52.086;21.066;2023-02-28T08:00:19;1.10;91.70
23475;DHT22;11910;52.086;21.066;2023-02-28T08:02:44;1.30;91.50
23475;DHT22;11910;52.086;21.066;2023-02-28T08:05:10;1.60;91.10
23475;DHT22;11910;52.086;21.066;2023-02-28T08:07:38;2.00;90.60
23475;DHT22;11910;52.086;21.066;2023-02-28T08:10:07;2.50;88.40
23475;DHT22;11910;52.086;21.066;2023-02-28T08:12:36;2.90;86.50
23475;DHT22;11910;52.086;21.066;2023-02-28T08:15:02;3.20;85.10
23475;DHT22;11910;52.086;21.066;2023-02-28T08:17:33;3.40;84.90
23475;DHT22;11910;52.086;21.066;2023-02-28T08:19:59;3.40;81.60
23475;DHT22;11910;52.086;21.066;2023-02-28T08:22:24;3.40;81.90
23475;DHT22;11910;52.086;21.066;2023-02-28T08:24:52;3.40;80.10
23475;DHT22;11910;52.086;21.066;2023-02-28T08:27:18;3.60;80.50
23475;DHT22;11910;52.086;21.066;2023-02-28T08:29:47;3.70;78.60
23475;DHT22;11910;52.086;21.066;2023-02-28T08:35:24;4.10;80.30
23475;DHT22;11910;52.086;21.066;2023-02-28T08:37:52;4.40;77.00
23475;DHT22;11910;52.086;21.066;2023-02-28T08:40:18;4.50;77.40
23475;DHT22;11910;52.086;21.066;2023-02-28T08:42:44;4.50;75.40
23475;DHT22;11910;52.086;21.066;2023-02-28T08:45:11;4.30;74.90
23475;DHT22;11910;52.086;21.066;2023-02-28T08:47:37;4.10;75.10
23475;DHT22;11910;52.086;21.066;2023-02-28T08:50:03;4.00;74.60
23475;DHT22;11910;52.086;21.066;2023-02-28T08:52:29;4.00;73.90
23475;DHT22;11910;52.086;21.066;2023-02-28T08:54:55;4.10;75.30
23475;DHT22;11910;52.086;21.066;2023-02-28T08:57:24;4.20;74.10
23475;DHT22;11910;52.086;21.066;2023-02-28T08:59:51;4.40;72.70
23475;DHT22;11910;52.086;21.066;2023-02-28T09:02:20;4.50;73.20
23475;DHT22;11910;52.086;21.066;2023-02-28T09:04:45;4.70;74.40
23475;DHT22;11910;52.086;21.066;2023-02-28T09:07:11;5.00;73.40
23475;DHT22;11910;52.086;21.066;2023-02-28T09:09:37;5.20;71.80
23475;DHT22;11910;52.086;21.066;2023-02-28T09:12:03;5.40;71.80
23475;DHT22;11910;52.086;21.066;2023-02-28T09:14:30;5.60;69.70
23475;DHT22;11910;52.086;21.066;2023-02-28T09:16:58;5.80;70.00
23475;DHT22;11910;52.086;21.066;2023-02-28T09:19:23;5.90;68.20
23475;DHT22;11910;52.086;21.066;2023-02-28T09:21:49;5.90;68.10
23475;DHT22;11910;52.086;21.066;2023-02-28T09:24:15;6.20;69.70
23475;DHT22;11910;52.086;21.066;2023-02-28T09:26:40;6.50;68.10
23475;DHT22;11910;52.086;21.066;2023-02-28T09:29:06;6.60;66.30
23475;DHT22;11910;52.086;21.066;2023-02-28T09:31:34;6.80;66.70
23475;DHT22;11910;52.086;21.066;2023-02-28T09:34:00;6.90;64.90
23475;DHT22;11910;52.086;21.066;2023-02-28T09:36:27;7.20;64.80
23475;DHT22;11910;52.086;21.066;2023-02-28T09:38:56;7.60;63.70
23475;DHT22;11910;52.086;21.066;2023-02-28T09:41:27;7.80;63.80
23475;DHT22;11910;52.086;21.066;2023-02-28T09:43:59;8.00;62.40
23475;DHT22;11910;52.086;21.066;2023-02-28T09:48:54;8.40;64.50
23475;DHT22;11910;52.086;21.066;2023-02-28T09:51:30;8.80;62.80
23475;DHT22;11910;52.086;21.066;2023-02-28T09:53:58;9.10;59.30
23475;DHT22;11910;52.086;21.066;2023-02-28T09:56:37;9.20;59.00
23475;DHT22;11910;52.086;21.066;2023-02-28T10:07:12;10.00;56.20
23475;DHT22;11910;52.086;21.066;2023-02-28T10:09:45;10.70;56.60
23475;DHT22;11910;52.086;21.066;2023-02-28T10:12:13;11.70;54.30
23475;DHT22;11910;52.086;21.066;2023-02-28T10:14:44;12.30;52.80
23475;DHT22;11910;52.086;21.066;2023-02-28T10:17:14;12.90;53.00
23475;DHT22;11910;52.086;21.066;2023-02-28T10:19:44;13.00;51.30
23475;DHT22;11910;52.086;21.066;2023-02-28T10:25:24;13.20;49.00
23475;DHT22;11910;52.086;21.066;2023-02-28T10:28:15;13.50;48.40
23475;DHT22;11910;52.086;21.066;2023-02-28T10:30:46;13.80;48.40
23475;DHT22;11910;52.086;21.066;2023-02-28T10:33:31;13.00;47.90
23475;DHT22;11910;52.086;21.066;2023-02-28T10:36:01;12.90;48.60
23475;DHT22;11910;52.086;21.066;2023-02-28T10:38:49;13.40;49.20
23475;DHT22;11910;52.086;21.066;2023-02-28T10:41:32;14.10;47.70
23475;DHT22;11910;52.086;21.066;2023-02-28T10:44:17;14.30;45.90
23475;DHT22;11910;52.086;21.066;2023-02-28T10:46:47;14.90;47.10
23475;DHT22;11910;52.086;21.066;2023-02-28T10:49:26;15.80;46.40
23475;DHT22;11910;52.086;21.066;2023-02-28T10:51:59;16.50;43.80
23475;DHT22;11910;52.086;21.066;2023-02-28T10:54:36;16.40;42.30
23475;DHT22;11910;52.086;21.066;2023-02-28T10:57:17;15.40;43.10
23475;DHT22;11910;52.086;21.066;2023-02-28T10:59:43;15.60;43.20
23475;DHT22;11910;52.086;21.066;2023-02-28T11:02:39;16.20;42.30
23475;DHT22;11910;52.086;21.066;2023-02-28T11:05:32;16.90;40.50
23475;DHT22;11910;52.086;21.066;2023-02-28T11:08:15;17.90;40.00
23475;DHT22;11910;52.086;21.066;2023-02-28T11:10:48;18.20;39.30
23475;DHT22;11910;52.086;21.066;2023-02-28T11:13:20;17.50;39.70
23475;DHT22;11910;52.086;21.066;2023-02-28T11:15:56;17.80;40.50
23475;DHT22;11910;52.086;21.066;2023-02-28T11:21:31;18.70;38.30
23475;DHT22;11910;52.086;21.066;2023-02-28T11:24:17;18.70;37.20
23475;DHT22;11910;52.086;21.066;2023-02-28T11:26:48;18.30;37.70
23475;DHT22;11910;52.086;21.066;2023-02-28T11:34:37;18.20;37.20
23475;DHT22;11910;52.086;21.066;2023-02-28T11:37:04;18.60;37.20
23475;DHT22;11910;52.086;21.066;2023-02-28T11:39:32;19.20;37.40
23475;DHT22;11910;52.086;21.066;2023-02-28T11:47:33;18.50;35.80
23475;DHT22;11910;52.086;21.066;2023-02-28T11:53:01;18.30;36.80
23475;DHT22;11910;52.086;21.066;2023-02-28T11:55:37;18.20;36.60
23475;DHT22;11910;52.086;21.066;2023-02-28T12:03:45;19.80;34.90
23475;DHT22;11910;52.086;21.066;2023-02-28T12:06:37;20.60;34.70
23475;DHT22;11910;52.086;21.066;2023-02-28T12:20:24;21.70;32.20
23475;DHT22;11910;52.086;21.066;2023-02-28T12:26:19;21.60;32.40
23475;DHT22;11910;52.086;21.066;2023-02-28T12:28:54;22.00;32.00
23475;DHT22;11910;52.086;21.066;2023-02-28T12:31:27;22.50;31.60
23475;DHT22;11910;52.086;21.066;2023-02-28T12:34:05;22.20;31.40
23475;DHT22;11910;52.086;21.066;2023-02-28T12:36:35;21.90;31.40
23475;DHT22;11910;52.086;21.066;2023-02-28T12:39:12;21.50;31.60
23475;DHT22;11910;52.086;21.066;2023-02-28T12:41:51;21.20;32.10
23475;DHT22;11910;52.086;21.066;2023-02-28T12:44:32;21.20;31.80
23475;DHT22;11910;52.086;21.066;2023-02-28T12:47:04;20.60;32.50
23475;DHT22;11910;52.086;21.066;2023-02-28T12:49:34;20.50;32.40
23475;DHT22;11910;52.086;21.066;2023-02-28T12:52:04;20.60;32.20
23475;DHT22;11910;52.086;21.066;2023-02-28T12:57:09;21.70;32.50
23475;DHT22;11910;52.086;21.066;2023-02-28T13:00:00;22.10;31.70
23475;DHT22;11910;52.086;21.066;2023-02-28T13:10:46;21.70;31.60
23475;DHT22;11910;52.086;21.066;2023-02-28T13:13:16;21.60;30.90
23475;DHT22;11910;52.086;21.066;2023-02-28T13:16:06;21.40;31.20
23475;DHT22;11910;52.086;21.066;2023-02-28T13:18:44;20.90;31.30
23475;DHT22;11910;52.086;21.066;2023-02-28T13:21:30;20.80;31.60
23475;DHT22;11910;52.086;21.066;2023-02-28T13:24:10;21.10;31.00
23475;DHT22;11910;52.086;21.066;2023-02-28T13:29:21;20.80;31.50
23475;DHT22;11910;52.086;21.066;2023-02-28T13:47:30;17.60;34.80
23475;DHT22;11910;52.086;21.066;2023-02-28T13:56:01;13.20;40.50
23475;DHT22;11910;52.086;21.066;2023-02-28T14:06:55;11.10;45.20
23475;DHT22;11910;52.086;21.066;2023-02-28T14:09:26;10.70;44.70
23475;DHT22;11910;52.086;21.066;2023-02-28T14:11:53;10.40;45.80
23475;DHT22;11910;52.086;21.066;2023-02-28T14:17:07;9.30;47.70
23475;DHT22;11910;52.086;21.066;2023-02-28T14:19:37;8.80;48.40
23475;DHT22;11910;52.086;21.066;2023-02-28T14:30:15;10.00;47.00
23475;DHT22;11910;52.086;21.066;2023-02-28T14:33:05;9.70;47.50
23475;DHT22;11910;52.086;21.066;2023-02-28T14:38:21;9.00;48.70
23475;DHT22;11910;52.086;21.066;2023-02-28T14:40:51;8.70;49.70
23475;DHT22;11910;52.086;21.066;2023-02-28T14:43:23;8.30;49.90
23475;DHT22;11910;52.086;21.066;2023-02-28T14:46:00;8.10;50.50
23475;DHT22;11910;52.086;21.066;2023-02-28T14:48:29;7.80;51.50
23475;DHT22;11910;52.086;21.066;2023-02-28T14:51:02;7.60;51.80
23475;DHT22;11910;52.086;21.066;2023-02-28T14:53:36;7.40;51.80
23475;DHT22;11910;52.086;21.066;2023-02-28T14:56:21;7.20;52.60
23475;DHT22;11910;52.086;21.066;2023-02-28T14:58:55;7.00;53.90
23475;DHT22;11910;52.086;21.066;2023-02-28T15:01:24;6.90;54.20
23475;DHT22;11910;52.086;21.066;2023-02-28T15:04:00;6.80;54.30
23475;DHT22;11910;52.086;21.066;2023-02-28T15:06:26;6.60;55.00
23475;DHT22;11910;52.086;21.066;2023-02-28T15:09:26;6.40;54.20
23475;DHT22;11910;52.086;21.066;2023-02-28T15:11:54;6.30;55.50
23475;DHT22;11910;52.086;21.066;2023-02-28T15:14:21;6.20;55.10
23475;DHT22;11910;52.086;21.066;2023-02-28T15:17:00;6.00;55.20
23475;DHT22;11910;52.086;21.066;2023-02-28T15:19:33;5.80;55.60
23475;DHT22;11910;52.086;21.066;2023-02-28T15:22:06;5.60;56.00
23475;DHT22;11910;52.086;21.066;2023-02-28T15:24:42;5.40;56.70
23475;DHT22;11910;52.086;21.066;2023-02-28T15:27:21;5.20;57.00
23475;DHT22;11910;52.086;21.066;2023-02-28T15:29:49;5.10;57.60
23475;DHT22;11910;52.086;21.066;2023-02-28T15:32:30;5.00;57.90
23475;DHT22;11910;52.086;21.066;2023-02-28T15:34:58;4.90;58.50
23475;DHT22;11910;52.086;21.066;2023-02-28T15:37:39;4.80;58.70
23475;DHT22;11910;52.086;21.066;2023-02-28T15:40:16;4.70;58.80
23475;DHT22;11910;52.086;21.066;2023-02-28T15:43:05;4.60;59.10
23475;DHT22;11910;52.086;21.066;2023-02-28T15:45:36;4.50;59.90
23475;DHT22;11910;52.086;21.066;2023-02-28T15:48:05;4.30;60.00
23475;DHT22;11910;52.086;21.066;2023-02-28T15:50:31;4.30;60.20
23475;DHT22;11910;52.086;21.066;2023-02-28T15:52:57;4.20;61.90
23475;DHT22;11910;52.086;21.066;2023-02-28T15:55:26;4.20;61.70
23475;DHT22;11910;52.086;21.066;2023-02-28T15:58:00;4.10;63.00
23475;DHT22;11910;52.086;21.066;2023-02-28T16:00:30;4.00;62.90
23475;DHT22;11910;52.086;21.066;2023-02-28T16:03:00;4.00;63.90
23475;DHT22;11910;52.086;21.066;2023-02-28T16:05:28;3.90;65.40
23475;DHT22;11910;52.086;21.066;2023-02-28T16:08:11;3.70;65.90
23475;DHT22;11910;52.086;21.066;2023-02-28T16:10:37;3.70;66.20
23475;DHT22;11910;52.086;21.066;2023-02-28T16:13:03;3.60;65.90
23475;DHT22;11910;52.086;21.066;2023-02-28T16:15:37;3.50;66.60
23475;DHT22;11910;52.086;21.066;2023-02-28T16:18:10;3.40;67.40
23475;DHT22;11910;52.086;21.066;2023-02-28T16:20:36;3.20;67.40
23475;DHT22;11910;52.086;21.066;2023-02-28T16:23:03;3.10;67.90
23475;DHT22;11910;52.086;21.066;2023-02-28T16:25:38;2.90;68.90
23475;DHT22;11910;52.086;21.066;2023-02-28T16:28:30;2.80;69.20
23475;DHT22;11910;52.086;21.066;2023-02-28T16:30:56;2.70;69.70
23475;DHT22;11910;52.086;21.066;2023-02-28T16:33:24;2.60;70.80
23475;DHT22;11910;52.086;21.066;2023-02-28T16:36:00;2.50;70.70
23475;DHT22;11910;52.086;21.066;2023-02-28T16:38:32;2.40;70.80
23475;DHT22;11910;52.086;21.066;2023-02-28T16:40:59;2.30;72.20
23475;DHT22;11910;52.086;21.066;2023-02-28T16:43:26;2.20;72.40
23475;DHT22;11910;52.086;21.066;2023-02-28T16:45:59;2.10;72.60
23475;DHT22;11910;52.086;21.066;2023-02-28T16:48:26;2.00;73.30
23475;DHT22;11910;52.086;21.066;2023-02-28T16:50:52;1.80;73.70
23475;DHT22;11910;52.086;21.066;2023-02-28T16:53:23;1.70;74.50
23475;DHT22;11910;52.086;21.066;2023-02-28T16:55:51;1.70;74.70
23475;DHT22;11910;52.086;21.066;2023-02-28T16:58:19;1.60;75.20
23475;DHT22;11910;52.086;21.066;2023-02-28T17:00:47;1.60;75.90
23475;DHT22;11910;52.086;21.066;2023-02-28T17:03:24;1.50;76.10
23475;DHT22;11910;52.086;21.066;2023-02-28T17:05:50;1.40;76.50
23475;DHT22;11910;52.086;21.066;2023-02-28T17:08:16;1.20;77.00
23475;DHT22;11910;52.086;21.066;2023-02-28T17:10:42;1.20;78.90
23475;DHT22;11910;52.086;21.066;2023-02-28T17:13:11;1.20;78.90
23475;DHT22;11910;52.086;21.066;2023-02-28T17:15:37;1.10;78.70
23475;DHT22;11910;52.086;21.066;2023-02-28T17:18:04;1.10;79.20
23475;DHT22;11910;52.086;21.066;2023-02-28T17:20:30;1.00;78.90
23475;DHT22;11910;52.086;21.066;2023-02-28T17:22:56;1.00;79.60
23475;DHT22;11910;52.086;21.066;2023-02-28T17:25:23;1.00;80.00
23475;DHT22;11910;52.086;21.066;2023-02-28T17:27:49;0.90;80.30
23475;DHT22;11910;52.086;21.066;2023-02-28T17:30:23;0.90;80.60
23475;DHT22;11910;52.086;21.066;2023-02-28T17:32:49;0.80;80.70
23475;DHT22;11910;52.086;21.066;2023-02-28T17:35:16;0.80;82.00
23475;DHT22;11910;52.086;21.066;2023-02-28T17:37:42;0.70;82.50
23475;DHT22;11910;52.086;21.066;2023-02-28T17:40:20;0.60;81.90
23475;DHT22;11910;52.086;21.066;2023-02-28T17:42:46;0.60;82.10
23475;DHT22;11910;52.086;21.066;2023-02-28T17:45:13;0.50;82.60
23475;DHT22;11910;52.086;21.066;2023-02-28T17:47:39;0.50;83.00
23475;DHT22;11910;52.086;21.066;2023-02-28T17:50:05;0.50;83.70
23475;DHT22;11910;52.086;21.066;2023-02-28T17:52:30;0.40;83.80
23475;DHT22;11910;52.086;21.066;2023-02-28T17:55:02;0.40;84.00
23475;DHT22;11910;52.086;21.066;2023-02-28T17:57:28;0.40;84.10
23475;DHT22;11910;52.086;21.066;2023-02-28T17:59:53;0.30;83.60
23475;DHT22;11910;52.086;21.066;2023-02-28T18:02:21;0.30;84.00
23475;DHT22;11910;52.086;21.066;2023-02-28T18:04:48;0.20;83.90
23475;DHT22;11910;52.086;21.066;2023-02-28T18:07:13;0.20;84.70
23475;DHT22;11910;52.086;21.066;2023-02-28T18:09:39;0.20;85.10
23475;DHT22;11910;52.086;21.066;2023-02-28T18:12:05;0.10;84.30